Latest Weather Observations for Busselton Airport

IDW60801

Issued at 12:05 pm WST Tuesday 2 September 2014 (issued every 30 minutes, with the page automatically refreshed every 10 minutes)

About weather observations | Map of weather stations | Latest weather observations for WA | Other Formats
Station Details ID: 009603 Name: BUSSELTON AERO Lat: -33.69 Lon: 115.40 Height: 16.3 m
Data from the previous 72 hours. | See also: Recent months at Busselton Airport
Date/Time
WST
Temp
°C
App
Temp
°C
Dew
Point
Rel
Hum
%
Delta-T
°C
Wind Press
QNH
hPa
Press
MSL
hPa
Rain
since 9 am
mm
Dir
 
Spd
km/h
Gust
km/h
Spd
kts
Gust
kts
02/12:00pm 16.7 15.8 10.6 67 3.2 SW 6 7 3 4 1016.0 1016.0 0.0
02/11:30am 16.0 16.0 9.7 66 3.3 W 0 0 0 0 1016.6 1016.6 0.0
02/11:00am 15.6 14.1 9.1 65 3.3 NE 7 11 4 6 1016.6 1016.6 0.0
02/10:30am 15.5 14.3 9.6 68 3.1 E 6 7 3 4 1016.7 1016.7 0.0
02/10:00am 14.0 12.3 8.4 69 2.8 ESE 7 9 4 5 1016.9 1016.9 0.0
02/09:30am 13.2 11.7 8.3 72 2.4 E 6 7 3 4 1017.1 1017.1 0.0
02/09:00am 12.3 10.9 7.4 72 2.4 SE 4 7 2 4 1017.2 1017.2 0.0
02/08:30am 11.4 9.0 7.2 75 2.0 E 9 13 5 7 1016.8 1016.8 0.0
02/08:00am 11.5 9.4 6.8 73 2.2 E 7 11 4 6 1016.8 1016.8 0.0
02/07:30am 11.3 9.5 7.0 75 2.1 ESE 6 7 3 4 1016.9 1016.9 0.0
02/07:00am 10.7 8.6 6.5 75 2.0 E 7 7 4 4 1017.1 1017.1 0.0
02/06:30am 10.5 7.9 6.3 75 2.0 ENE 9 11 5 6 1016.7 1016.7 0.0
02/06:00am 10.7 8.0 5.7 71 2.3 E 9 11 5 6 1016.6 1016.6 0.0
02/05:30am 10.7 7.2 5.5 70 2.4 E 13 17 7 9 1016.3 1016.3 0.0
02/05:00am 10.5 7.6 6.5 76 1.9 E 11 13 6 7 1016.6 1016.6 0.0
02/04:30am 10.5 8.1 7.0 79 1.7 ESE 9 11 5 6 1016.7 1016.7 0.0
02/04:00am 10.5 8.6 7.4 81 1.5 E 7 9 4 5 1017.1 1017.1 0.0
02/03:30am 10.3 8.5 7.2 81 1.5 S 6 7 3 4 1017.6 1017.6 0.0
02/03:00am 10.5 8.5 7.2 80 1.6 SSE 7 9 4 5 1017.8 1017.8 0.0
02/02:30am 10.6 8.5 6.6 76 1.9 SE 7 7 4 4 1018.5 1018.5 0.0
02/02:00am 10.5 8.4 6.7 77 1.8 ESE 7 7 4 4 1018.8 1018.8 0.0
02/01:30am 10.3 8.3 7.0 80 1.6 ESE 7 9 4 5 1019.1 1019.1 0.0
02/01:00am 9.9 7.5 6.8 81 1.5 SE 9 9 5 5 1019.2 1019.2 0.0
02/12:30am 10.5 8.5 6.3 75 2.0 SE 6 7 3 4 1019.6 1019.6 0.0
02/12:00am 9.8 7.7 6.7 81 1.4 ESE 7 9 4 5 1019.9 1019.9 0.0
 
Date/Time
WST
Temp
°C
App
Temp
°C
Dew
Point
Rel
Hum
%
Delta-T
°C
Wind Press
QNH
hPa
Press
MSL
hPa
Rain
since 9 am
mm
Dir
 
Spd
km/h
Gust
km/h
Spd
kts
Gust
kts
01/11:30pm 9.4 7.0 6.9 84 1.2 ESE 9 13 5 7 1019.8 1019.8 0.0
01/11:00pm 9.5 8.3 6.6 82 1.3 SSE 2 6 1 3 1020.4 1020.4 0.0
01/10:30pm 9.1 7.1 6.9 86 1.0 SSE 7 9 4 5 1020.4 1020.4 0.0
01/10:00pm 8.9 6.9 6.9 87 0.9 SSE 7 9 4 5 1020.7 1020.7 0.0
01/09:30pm 9.1 7.3 7.1 87 0.9 SSE 6 7 3 4 1021.3 1021.3 0.0
01/09:00pm 8.7 6.2 6.5 86 1.0 S 9 9 5 5 1021.5 1021.5 0.0
01/08:30pm 8.9 6.8 6.5 85 1.1 SSE 7 7 4 4 1021.3 1021.3 0.0
01/08:00pm 10.3 8.3 7.2 81 1.5 SSW 7 7 4 4 1021.5 1021.5 0.0
01/07:30pm 9.8 7.7 6.5 80 1.5 SE 7 9 4 5 1021.0 1021.0 0.0
01/07:00pm 10.7 8.7 7.3 79 1.6 S 7 9 4 5 1021.2 1021.2 0.0
01/06:30pm 11.6 9.7 6.9 73 2.2 S 6 6 3 3 1021.5 1021.5 0.0
01/06:00pm 12.7 10.9 7.0 68 2.7 S 6 7 3 4 1021.4 1021.4 0.0
01/05:30pm 13.9 12.6 5.8 58 3.8 ENE 2 7 1 4 1021.1 1021.1 0.0
01/05:00pm 15.5 14.3 4.6 48 5.1 CALM 0 0 0 0 1021.1 1021.1 0.0
01/04:30pm 15.6 14.5 5.2 50 4.9 CALM 0 0 0 0 1021.1 1021.1 0.0
01/04:00pm 15.8 12.9 4.8 48 5.2 NNW 9 13 5 7 1021.0 1021.0 0.0
01/03:30pm 15.7 13.1 5.9 52 4.7 NNW 9 15 5 8 1021.2 1021.2 0.0
01/03:00pm 15.9 12.9 6.1 52 4.7 N 11 15 6 8 1021.2 1021.2 0.0
01/02:30pm 16.0 13.3 5.6 50 5.0 NW 9 15 5 8 1021.3 1021.3 0.0
01/02:00pm 15.9 13.6 5.8 51 4.8 N 7 15 4 8 1021.5 1021.5 0.0
01/01:30pm 15.3 12.1 5.0 50 4.9 N 11 15 6 8 1021.5 1021.5 0.0
01/01:00pm 14.8 11.3 5.3 53 4.5 N 13 19 7 10 1022.3 1022.3 0.0
01/12:30pm 15.6 11.9 4.7 48 5.1 E 13 20 7 11 1022.8 1022.9 0.0
01/12:00pm 15.2 12.1 3.7 46 5.2 ESE 9 15 5 8 1023.6 1023.6 0.0
01/11:30am 15.3 11.9 5.8 53 4.6 ENE 13 19 7 10 1023.9 1023.9 0.0
01/11:00am 14.5 10.8 6.1 57 4.0 ENE 15 20 8 11 1024.1 1024.1 0.0
01/10:30am 13.5 9.3 5.9 60 3.6 ENE 17 20 9 11 1024.5 1024.5 0.0
01/10:00am 12.9 8.7 5.8 62 3.3 ENE 17 22 9 12 1024.6 1024.6 0.0
01/09:30am 12.1 8.0 6.4 68 2.7 ENE 17 22 9 12 1024.6 1024.6 0.0
01/09:00am 11.1 7.5 6.7 74 2.1 ENE 15 19 8 10 1024.5 1024.5 0.0
01/08:30am 9.5 5.9 6.9 84 1.2 E 15 20 8 11 1024.5 1024.5 0.0
01/08:00am 7.6 4.8 6.9 95 0.3 E 11 13 6 7 1024.5 1024.5 0.0
01/07:30am 5.3 2.4 4.7 96 0.3 E 9 11 5 6 1024.1 1024.1 0.0
01/07:00am 3.4 0.7 2.7 95 0.3 SE 6 6 3 3 1024.2 1024.2 0.0
01/06:30am 3.4 0.5 2.7 95 0.3 S 7 7 4 4 1024.1 1024.1 0.0
01/06:00am 3.8 1.2 3.1 95 0.3 E 6 7 3 4 1023.6 1023.6 0.0
01/05:30am 3.9 1.3 3.2 95 0.3 ESE 6 7 3 4 1023.3 1023.4 0.0
01/05:00am 4.1 1.3 3.4 95 0.3 ESE 7 9 4 5 1022.9 1023.0 0.0
01/04:30am 4.1 1.3 3.4 95 0.3 E 7 9 4 5 1022.9 1023.0 0.0
01/04:00am 4.0 1.4 3.3 95 0.3 SSE 6 7 3 4 1022.8 1022.9 0.0
01/03:30am 3.7 0.5 2.8 94 0.4 SE 9 11 5 6 1022.5 1022.6 0.0
01/03:00am 4.1 1.3 3.3 94 0.3 S 7 9 4 5 1022.9 1023.0 0.0
01/02:30am 3.9 1.1 3.1 94 0.3 S 7 9 4 5 1022.8 1022.9 0.0
01/02:00am 4.1 1.3 3.1 93 0.4 S 7 9 4 5 1022.9 1023.0 0.0
01/01:30am 5.1 2.7 4.1 93 0.4 S 6 7 3 4 1022.9 1023.0 0.0
01/01:00am 5.2 2.6 4.2 93 0.4 SE 7 7 4 4 1022.9 1023.0 0.0
01/12:30am 5.2 2.6 4.0 92 0.5 ESE 7 7 4 4 1022.8 1022.9 0.0
01/12:00am 5.2 2.5 3.9 91 0.5 E 7 9 4 5 1022.8 1022.9 0.0
 
Date/Time
WST
Temp
°C
App
Temp
°C
Dew
Point
Rel
Hum
%
Delta-T
°C
Wind Press
QNH
hPa
Press
MSL
hPa
Rain
since 9 am
mm
Dir
 
Spd
km/h
Gust
km/h
Spd
kts
Gust
kts
31/11:30pm 5.9 3.6 4.6 91 0.6 E 6 7 3 4 1022.9 1023.0 0.0
31/11:00pm 6.8 4.9 5.1 89 0.7 SSE 4 6 2 3 1023.2 1023.3 0.0
31/10:30pm 7.3 5.9 5.5 88 0.8 SSE 2 6 1 3 1023.2 1023.3 0.0
31/10:00pm 8.0 5.9 5.7 85 1.0 SE 6 7 3 4 1023.5 1023.5 0.0
31/09:30pm 8.6 6.5 5.9 83 1.2 SSE 6 7 3 4 1023.2 1023.3 0.0
31/09:00pm 8.5 6.8 6.0 84 1.1 SSE 4 7 2 4 1022.9 1023.0 0.0
31/08:30pm 8.8 6.1 5.6 80 1.4 S 9 11 5 6 1022.6 1022.7 0.0
31/08:00pm 9.3 7.0 5.9 79 1.5 SSE 7 9 4 5 1022.3 1022.4 0.0
31/07:30pm 9.8 6.8 6.0 77 1.8 S 11 13 6 7 1021.9 1022.0 0.0
31/07:00pm 10.0 6.3 6.2 77 1.8 S 15 17 8 9 1021.6 1021.7 0.0
31/06:30pm 11.1 7.7 5.9 70 2.4 SSW 13 17 7 9 1021.4 1021.5 0.0
31/06:00pm 11.9 8.1 6.0 67 2.8 S 15 19 8 10 1021.0 1021.1 0.0
31/05:30pm 13.5 9.4 6.4 62 3.4 SSW 17 22 9 12 1020.9 1021.0 0.0
31/05:00pm 14.8 10.4 4.5 50 4.8 SSW 17 20 9 11 1020.7 1020.8 0.0
31/04:30pm 15.4 10.6 5.4 51 4.8 SW 20 26 11 14 1020.2 1020.3 0.0
31/04:00pm 16.3 11.6 6.2 51 4.9 SW 20 26 11 14 1019.7 1019.8 0.0
31/03:30pm 15.6 10.4 5.3 50 4.9 SSW 22 28 12 15 1019.6 1019.6 0.0
31/03:00pm 15.8 11.0 5.4 50 4.9 SSW 20 32 11 17 1019.5 1019.5 0.0
31/02:30pm 16.6 11.9 6.2 50 5.1 SW 20 30 11 16 1019.2 1019.2 0.0
31/02:00pm 15.8 12.0 5.7 51 4.8 SSW 15 22 8 12 1019.2 1019.2 0.0
31/01:30pm 16.8 12.9 5.5 47 5.4 WSW 15 24 8 13 1019.1 1019.1 0.0
31/01:00pm 16.7 13.3 6.0 49 5.2 WSW 13 17 7 9 1019.1 1019.1 0.0
31/12:30pm 16.0 13.4 6.2 52 4.8 SW 9 19 5 10 1019.3 1019.3 0.0
31/12:00pm 14.5 11.0 7.1 61 3.6 S 15 20 8 11 1019.5 1019.5 0.0
31/11:30am 15.0 11.5 5.3 52 4.6 SW 13 20 7 11 1019.8 1019.9 0.0
31/11:00am 14.7 11.4 6.3 57 4.0 S 13 17 7 9 1020.1 1020.2 0.0
31/10:30am 14.2 12.0 7.8 65 3.2 S 9 13 5 7 1020.2 1020.3 0.0
31/10:00am 13.6 12.1 8.3 70 2.6 S 6 9 3 5 1020.2 1020.3 0.0
31/09:30am 12.8 11.8 10.2 84 1.3 E 6 7 3 4 1020.2 1020.3 0.0
31/09:00am 11.9 11.1 11.1 95 0.4 ENE 6 7 3 4 1020.2 1020.3 0.8
31/08:30am 11.0 10.2 10.9 99 0.1 E 6 7 3 4 1020.0 1020.1 0.8
31/08:00am 9.3 7.8 9.2 99 0.0 SSW 7 11 4 6 1019.8 1019.9 0.8
31/07:30am 8.2 7.3 7.9 98 0.1 SSW 2 6 1 3 1019.5 1019.5 0.8
31/07:00am 7.7 5.8 7.4 98 0.1 S 7 9 4 5 1019.2 1019.2 0.8
31/06:30am 6.6 5.3 6.2 97 0.2 SSE 2 6 1 3 1019.0 1019.0 0.8
31/06:00am 6.6 4.4 6.1 97 0.2 SSE 7 7 4 4 1018.5 1018.5 0.8
31/05:30am 6.6 4.3 5.9 95 0.3 ESE 7 9 4 5 1018.1 1018.1 0.8
31/05:00am 8.1 7.1 7.5 96 0.3 E 2 6 1 3 1018.0 1018.0 0.8
31/04:30am 8.2 7.6 7.6 96 0.3 CALM 0 0 0 0 1018.0 1018.0 0.8
31/04:00am 8.5 6.9 7.8 95 0.3 E 6 7 3 4 1018.1 1018.1 0.8
31/03:30am 8.9 8.5 8.2 95 0.3 CALM 0 6 0 3 1018.1 1018.1 0.8
31/03:00am 9.3 7.6 8.4 94 0.4 S 7 9 4 5 1018.2 1018.2 0.8
31/02:30am 9.8 8.2 8.9 94 0.4 S 7 9 4 5 1018.2 1018.2 0.8
31/02:00am 10.6 8.5 9.7 94 0.5 SSW 11 15 6 8 1018.2 1018.2 0.6
31/01:30am 10.7 10.6 9.6 93 0.6 CALM 0 0 0 0 1018.0 1018.0 0.4
31/01:00am 10.7 10.6 9.5 92 0.6 CALM 0 0 0 0 1017.7 1017.7 0.4
31/12:30am 10.8 10.7 9.6 92 0.6 CALM 0 0 0 0 1017.7 1017.7 0.4
31/12:00am 11.0 10.6 9.8 92 0.6 W 2 6 1 3 1017.7 1017.7 0.4
 
Date/Time
WST
Temp
°C
App
Temp
°C
Dew
Point
Rel
Hum
%
Delta-T
°C
Wind Press
QNH
hPa
Press
MSL
hPa
Rain
since 9 am
mm
Dir
 
Spd
km/h
Gust
km/h
Spd
kts
Gust
kts
30/11:30pm 11.2 9.9 9.8 91 0.7 WNW 7 9 4 5 1018.3 1018.3 0.2
30/11:00pm 11.2 10.4 9.5 89 0.9 WSW 4 7 2 4 1018.0 1018.0 0.2
30/10:30pm 11.3 10.4 9.2 87 1.0 SSW 4 7 2 4 1018.1 1018.1 0.0
30/10:00pm 11.5 10.1 9.5 87 1.0 S 7 9 4 5 1018.3 1018.3 0.0
30/09:30pm 11.4 9.9 9.2 86 1.1 S 7 7 4 4 1018.2 1018.2 0.0
30/09:00pm 11.3 10.0 9.1 86 1.1 SSE 6 6 3 3 1017.9 1017.9 0.0
30/08:30pm 11.4 10.0 8.8 84 1.3 SE 6 7 3 4 1017.7 1017.7 0.0
30/08:00pm 11.6 10.0 8.8 83 1.4 S 7 7 4 4 1017.8 1017.8 0.0
30/07:30pm 11.9 10.0 9.0 82 1.5 S 9 11 5 6 1017.9 1017.9 0.0
30/07:00pm 12.1 9.9 9.3 83 1.4 S 11 17 6 9 1017.7 1017.7 0.0
30/06:30pm 12.2 10.4 9.6 84 1.3 S 9 9 5 5 1017.5 1017.5 0.0
30/06:00pm 12.3 10.9 9.4 82 1.5 S 7 9 4 5 1016.9 1016.9 0.0
30/05:30pm 12.9 11.0 9.2 78 1.9 S 9 11 5 6 1017.0 1017.0 0.0
30/05:00pm 13.0 11.0 8.5 74 2.2 S 9 11 5 6 1016.7 1016.7 0.0
30/04:30pm 13.1 9.4 8.0 71 2.5 SSW 17 22 9 12 1016.7 1016.7 0.0
30/04:00pm 14.3 10.9 7.8 65 3.2 SW 15 17 8 9 1016.5 1016.5 0.0
30/03:30pm 14.5 10.5 8.3 66 3.1 SW 19 22 10 12 1016.3 1016.3 0.0
30/03:00pm 15.4 12.4 7.7 60 3.8 SW 13 17 7 9 1015.8 1015.8 0.0
30/02:30pm 15.3 11.5 7.4 59 3.9 SSW 17 20 9 11 1015.5 1015.5 0.0
30/02:00pm 15.5 12.6 8.3 62 3.6 SSW 13 17 7 9 1015.7 1015.7 0.0
30/01:30pm 15.3 13.0 7.6 60 3.8 SW 9 15 5 8 1015.6 1015.6 0.0
30/01:00pm 15.2 12.5 7.3 59 3.9 SW 11 15 6 8 1015.8 1015.8 0.0
30/12:30pm 14.2 10.1 7.8 65 3.2 SW 19 24 10 13 1015.9 1015.9 0.0

Other Formats:

Comma delimited format used in spreadsheet applications
http://www.bom.gov.au/fwo/IDW60801/IDW60801.95611.axf

JavaScript Object Notation format (JSON) in row-major order
http://www.bom.gov.au/fwo/IDW60801/IDW60801.95611.json